Nearby METAR Reports

 

CWGT - Sisters Island (Auto)
Distance from station: NE 39km
Updated: 2024-02-26 11:00

 Wind from WNW
Wind: WNW 28 km/h
Temperature: 5°C
Wind Chill: 1°C
Dew Point: -4°C
Humidity: 53%
2024/02/26 19:00 CWGT 261900Z AUTO 30015KT 05/M04 RMK AO1 PK WND 29020/1807 SLP098 T00521043 51010
CWGB - Ballenas Island (Auto)
Distance from station: ENE 47km
Updated: 2024-02-26 11:00

 Wind from WNW
Wind: WNW 26 km/h
Temperature: 5°C
Wind Chill: 1°C
Dew Point: -2°C
Humidity: 61%
2024/02/26 19:00 CWGB 261900Z AUTO 29014KT 05/M02 RMK AO1 PK WND 27019/1809 SLP096 T00451020 51011
CYQQ - CFB Comox
Distance from station: N 55km
Updated: 2024-02-26 11:00
Few Clouds
Few Clouds
 Wind from NNW
Wind: NNW 24 km/h, Gust: 35 km/h
Temperature: 5°C
Wind Chill: 1°C
Dew Point: -5°C
Humidity: 49%
Barometer: 1009.5 hPa
Clouds: Few Clouds
Visibility: 32 km
Cloud details: Few Clouds 1829 m
Few Clouds 5486 m
2024/02/26 19:00 CYQQ 261900Z 33013G19KT 20SM FEW060 FEW180 05/M05 A2981 RMK SC2AC1 DENSITY ALT -894FT CVCTV CLD EMBD E SLP096
 
CYPW - Powell River Airport
Distance from station: NNE 69km
Updated: 2024-02-26 11:00
Partly cloudy
Partly cloudy
 Wind from WNW
Wind: WNW 26 km/h, Gust: 44 km/h
Temperature: 5°C
Wind Chill: 1°C
Dew Point: -4°C
Humidity: 53%
Barometer: 1009.1 hPa
Clouds: Partly cloudy
Visibility: 48 km
Cloud details: Few Clouds 1189 m
Partly cloudy 3962 m
2024/02/26 19:00 CYPW 261900Z 29014G24KT 30SM FEW039 SCT130 05/M04 A2980 RMK SC1AC1 AC TR CU ASOCTD SLP096
CYCD - Nanaimo Airport
Distance from station: ESE 70km
Updated: 2024-02-26 11:00
Partly cloudy
Partly cloudy
 Wind from N
Wind: N 22 km/h
Temperature: 6°C
Wind Chill: 2°C
Dew Point: -4°C
Humidity: 49%
Barometer: 1009.5 hPa
Clouds: Partly cloudy
Visibility: 40 km
Cloud details: Partly cloudy 1219 m
2024/02/26 19:00 CYCD 261900Z 35012KT 300V360 25SM SCT040 06/M04 A2981 RMK CU3 SLP099
CYAZ - Tofino Airport
Distance from station: WSW 73km
Updated: 2024-02-26 11:00
Few Clouds
Few Clouds
 Wind from WNW
Wind: WNW 20 km/h, Gust: 33 km/h
Temperature: 5°C
Wind Chill: 1°C
Dew Point: 1°C
Humidity: 76%
Barometer: 1010.8 hPa
Clouds: Few Clouds
Visibility: 24 km
Cloud details: Few Clouds 762 m
Few Clouds 5182 m
2024/02/26 19:00 CYAZ 261900Z 30011G18KT 15SM FEW025 FEW170 05/01 A2985 RMK CU1AC1 CU TR AC TR SLP110
 
CWEL - Entrance Island (Auto)
Distance from station: E 73km
Updated: 2024-02-26 11:00

 Wind from WNW
Wind: WNW 33 km/h
Temperature: 5°C
Wind Chill: 0°C
Dew Point: -1°C
Humidity: 66%
2024/02/26 19:00 CWEL 261900Z AUTO 29018KT 05/M01 RMK AO1 PK WND 29024/1805 SLP097 T00471012 53010
CYBL - Campbell River Airport
Distance from station: NNW 88km
Updated: 2024-02-26 11:00
Nearby showers, Few clouds
Nearby showers, Few clouds
 Wind from NW
Wind: NW 28 km/h, Gust: 39 km/h
Temperature: 3°C
Wind Chill: -3°C
Dew Point: -4°C
Humidity: 60%
Barometer: 1009.1 hPa
Summary: Nearby Showers
Clouds: Few Clouds
Visibility: 48 km
Cloud details: Few Clouds 1829 m
2024/02/26 19:00 CYBL 261900Z 31015G21KT 30SM VCSH FEW060 03/M04 A2980 RMK CU2 SLP097
CWKH - Malahat Highway (Auto)
Distance from station: SE 116km
Updated: 2024-02-26 11:00

 
Temperature: 4°C
Dew Point: -5°C
Humidity: 52%
2024/02/26 19:00 CWKH 261900Z AUTO 04/M05 RMK AO1 SLP083 T00361046 51012
 
CYVR - Vancouver Intl Airport
Distance from station: E 118km
Updated: 2024-02-26 11:00
Few Clouds
Few Clouds
 Wind from W
Wind: W 44 km/h, Gust: 59 km/h
Temperature: 6°C
Wind Chill: 1°C
Dew Point: -1°C
Humidity: 61%
Barometer: 1008.5 hPa
Clouds: Few Clouds
Visibility: 48 km
Cloud details: Few Clouds 1372 m
Few Clouds 7315 m
2024/02/26 19:00 CYVR 261900Z 28024G32KT 30SM FEW045 FEW240 06/M01 A2978 RMK SC2CI1 CI TR SLP087
CYYJ - Victoria Intl Airport
Distance from station: ESE 120km
Updated: 2024-02-26 11:00
Few Clouds
Few Clouds
 Wind from calm
Wind: Calm
Temperature: 7°C
Dew Point: -5°C
Humidity: 42%
Barometer: 1009.5 hPa
Clouds: Few Clouds
Visibility: 48 km
Cloud details: Few Clouds 1219 m
Few Clouds 5182 m
2024/02/26 19:00 CYYJ 261900Z 00000KT 30SM FEW040 FEW170 07/M05 A2981 RMK SC1AC1 AC TR SLP098
CWEB - Estevan Pt. (Auto)
Distance from station: W 129km
Updated: 2024-02-26 00:00
NOT Current

 Wind from N
Wind: N 13 km/h
Temperature: 1°C
Wind Chill: -3°C
Dew Point: 1°C
Humidity: 100%
2024/02/26 08:00 CWEB 260800Z AUTO 36007KT 01/01 RMK AO1 5PAST HR 1002 PK WND 32035/0700 SLP069 P0002 T00130007 50008
 
CWQK - Race Rocks (Auto)
Distance from station: SE 138km
Updated: 2024-02-26 11:00

 Wind from W
Wind: W 26 km/h
Temperature: 5°C
Wind Chill: 1°C
Dew Point: 0°C
Humidity: 70%
2024/02/26 19:00 CWQK 261900Z AUTO 26014KT 05/M00 RMK AO1 PK WND 27018/1800 SLP105 T00471002 51014
CWAE - Whistler
Distance from station: NE 167km
Updated: 2024-02-26 11:00
Mostly cloudy
Mostly cloudy
 Wind from S
Wind: S 6 km/h
Temperature: 2°C
Dew Point: -4°C
Humidity: 65%
Barometer: 1003.7 hPa
Clouds: Mostly cloudy
Visibility: 24 km
Cloud details: Mostly cloudy 1859 m
2024/02/26 19:00 CWAE 261900Z 18003KT 15SM BKN061 02/M04 A2964 RMK SC5 WIND EST SLP057
CYZT - Port Hardy Airport
Distance from station: NW 244km
Updated: 2024-02-26 11:32
Light snow, Showers, Mostly cloudy
Light snow, Showers, Mostly cloudy
 Wind from NNW
Wind: NNW 30 km/h, Gust: 48 km/h
Temperature: 1°C
Wind Chill: -5°C
Dew Point: -2°C
Humidity: 81%
Barometer: 1012.5 hPa
Summary: Light snow, Showers
Clouds: Mostly cloudy
Visibility: 13 km
Cloud details: Few Clouds 305 m
Mostly cloudy 732 m
Mostly cloudy 1219 m
2024/02/26 19:32 CYZT 261932Z 33016G26KT 300V360 8SM -SHSN FEW010 BKN024 BKN040 01/M02 A2990 RMK SF1CU4SC2 SLP127
 
CWRU - Solander Isl (Auto)
Distance from station: WNW 247km
Updated: 2024-02-26 11:00

 Wind from NNW
Wind: NNW 57 km/h, Gust: 70 km/h
Temperature: 4°C
Wind Chill: -3°C
Dew Point: -5°C
Humidity: 52%
2024/02/26 19:00 CWRU 261900Z AUTO 33031G38KT 04/M05 RMK AO1 PK WND 33038/1852 SLP117 T00371052 50007